sensor_id;sensor_type;location;lat;lon;timestamp;P1;durP1;ratioP1;P2;durP2;ratioP2
77109;SDS011;66062;52.464;16.922;2023-04-15T00:02:21;12.45;;;7.72;;
77109;SDS011;66062;52.464;16.922;2023-04-15T00:04:47;12.63;;;7.93;;
77109;SDS011;66062;52.464;16.922;2023-04-15T00:07:13;11.32;;;7.60;;
77109;SDS011;66062;52.464;16.922;2023-04-15T00:09:40;11.25;;;6.70;;
77109;SDS011;66062;52.464;16.922;2023-04-15T00:12:07;15.40;;;7.55;;
77109;SDS011;66062;52.464;16.922;2023-04-15T00:14:33;13.15;;;7.88;;
77109;SDS011;66062;52.464;16.922;2023-04-15T00:17:00;12.15;;;8.25;;
77109;SDS011;66062;52.464;16.922;2023-04-15T00:19:26;14.85;;;8.63;;
77109;SDS011;66062;52.464;16.922;2023-04-15T00:21:51;14.23;;;8.15;;
77109;SDS011;66062;52.464;16.922;2023-04-15T00:24:17;14.40;;;7.97;;
77109;SDS011;66062;52.464;16.922;2023-04-15T00:26:42;15.77;;;8.43;;
77109;SDS011;66062;52.464;16.922;2023-04-15T00:29:09;11.55;;;8.02;;
77109;SDS011;66062;52.464;16.922;2023-04-15T00:31:34;10.73;;;7.70;;
77109;SDS011;66062;52.464;16.922;2023-04-15T00:34:00;15.25;;;8.68;;
77109;SDS011;66062;52.464;16.922;2023-04-15T00:36:26;12.10;;;8.45;;
77109;SDS011;66062;52.464;16.922;2023-04-15T00:38:52;13.15;;;8.73;;
77109;SDS011;66062;52.464;16.922;2023-04-15T00:41:17;13.43;;;8.35;;
77109;SDS011;66062;52.464;16.922;2023-04-15T00:43:43;13.18;;;8.02;;
77109;SDS011;66062;52.464;16.922;2023-04-15T00:46:08;13.52;;;8.55;;
77109;SDS011;66062;52.464;16.922;2023-04-15T00:48:37;14.07;;;8.75;;
77109;SDS011;66062;52.464;16.922;2023-04-15T00:51:03;13.23;;;7.70;;
77109;SDS011;66062;52.464;16.922;2023-04-15T00:53:28;13.73;;;8.20;;
77109;SDS011;66062;52.464;16.922;2023-04-15T00:55:54;15.18;;;9.30;;
77109;SDS011;66062;52.464;16.922;2023-04-15T00:58:20;17.40;;;10.73;;
77109;SDS011;66062;52.464;16.922;2023-04-15T01:00:45;13.10;;;8.85;;
77109;SDS011;66062;52.464;16.922;2023-04-15T01:03:12;13.30;;;8.88;;
77109;SDS011;66062;52.464;16.922;2023-04-15T01:05:38;13.00;;;8.80;;
77109;SDS011;66062;52.464;16.922;2023-04-15T01:08:03;14.45;;;8.75;;
77109;SDS011;66062;52.464;16.922;2023-04-15T01:10:30;11.88;;;8.85;;
77109;SDS011;66062;52.464;16.922;2023-04-15T01:12:55;13.10;;;9.23;;
77109;SDS011;66062;52.464;16.922;2023-04-15T01:15:21;12.63;;;8.73;;
77109;SDS011;66062;52.464;16.922;2023-04-15T01:17:47;13.10;;;8.85;;
77109;SDS011;66062;52.464;16.922;2023-04-15T01:20:12;12.73;;;8.70;;
77109;SDS011;66062;52.464;16.922;2023-04-15T01:22:40;12.05;;;9.02;;
77109;SDS011;66062;52.464;16.922;2023-04-15T01:25:07;13.82;;;8.85;;
77109;SDS011;66062;52.464;16.922;2023-04-15T01:27:34;13.40;;;9.15;;
77109;SDS011;66062;52.464;16.922;2023-04-15T01:30:05;13.73;;;8.63;;
77109;SDS011;66062;52.464;16.922;2023-04-15T01:32:32;17.05;;;9.18;;
77109;SDS011;66062;52.464;16.922;2023-04-15T01:34:57;15.18;;;9.57;;
77109;SDS011;66062;52.464;16.922;2023-04-15T01:37:23;13.27;;;8.90;;
77109;SDS011;66062;52.464;16.922;2023-04-15T01:39:49;15.80;;;9.82;;
77109;SDS011;66062;52.464;16.922;2023-04-15T01:42:14;11.15;;;8.23;;
77109;SDS011;66062;52.464;16.922;2023-04-15T01:44:40;12.43;;;8.57;;
77109;SDS011;66062;52.464;16.922;2023-04-15T01:47:05;17.08;;;9.75;;
77109;SDS011;66062;52.464;16.922;2023-04-15T01:49:31;15.45;;;9.13;;
77109;SDS011;66062;52.464;16.922;2023-04-15T01:51:56;16.30;;;9.52;;
77109;SDS011;66062;52.464;16.922;2023-04-15T01:54:22;18.80;;;9.57;;
77109;SDS011;66062;52.464;16.922;2023-04-15T01:56:47;13.88;;;8.82;;
77109;SDS011;66062;52.464;16.922;2023-04-15T01:59:13;12.85;;;9.10;;
77109;SDS011;66062;52.464;16.922;2023-04-15T02:01:38;15.70;;;9.98;;
77109;SDS011;66062;52.464;16.922;2023-04-15T02:04:05;16.33;;;11.18;;
77109;SDS011;66062;52.464;16.922;2023-04-15T02:06:31;11.73;;;8.88;;
77109;SDS011;66062;52.464;16.922;2023-04-15T02:08:57;13.13;;;8.90;;
77109;SDS011;66062;52.464;16.922;2023-04-15T02:11:23;12.88;;;9.07;;
77109;SDS011;66062;52.464;16.922;2023-04-15T02:13:48;12.85;;;9.07;;
77109;SDS011;66062;52.464;16.922;2023-04-15T02:16:15;12.98;;;9.57;;
77109;SDS011;66062;52.464;16.922;2023-04-15T02:18:44;13.93;;;9.70;;
77109;SDS011;66062;52.464;16.922;2023-04-15T02:21:11;13.63;;;8.65;;
77109;SDS011;66062;52.464;16.922;2023-04-15T02:23:37;12.98;;;8.63;;
77109;SDS011;66062;52.464;16.922;2023-04-15T02:26:02;13.38;;;8.85;;
77109;SDS011;66062;52.464;16.922;2023-04-15T02:28:27;14.68;;;8.85;;
77109;SDS011;66062;52.464;16.922;2023-04-15T02:30:53;12.25;;;8.38;;
77109;SDS011;66062;52.464;16.922;2023-04-15T02:33:21;13.32;;;9.10;;
77109;SDS011;66062;52.464;16.922;2023-04-15T02:35:47;16.02;;;9.80;;
77109;SDS011;66062;52.464;16.922;2023-04-15T02:38:12;12.43;;;9.25;;
77109;SDS011;66062;52.464;16.922;2023-04-15T02:40:40;13.27;;;9.57;;
77109;SDS011;66062;52.464;16.922;2023-04-15T02:43:06;14.95;;;10.25;;
77109;SDS011;66062;52.464;16.922;2023-04-15T02:45:32;12.88;;;9.20;;
77109;SDS011;66062;52.464;16.922;2023-04-15T02:47:57;12.95;;;9.48;;
77109;SDS011;66062;52.464;16.922;2023-04-15T02:50:23;13.82;;;9.50;;
77109;SDS011;66062;52.464;16.922;2023-04-15T02:52:49;15.52;;;9.48;;
77109;SDS011;66062;52.464;16.922;2023-04-15T02:55:16;15.50;;;9.23;;
77109;SDS011;66062;52.464;16.922;2023-04-15T02:57:42;13.27;;;9.25;;
77109;SDS011;66062;52.464;16.922;2023-04-15T03:00:08;13.65;;;9.82;;
77109;SDS011;66062;52.464;16.922;2023-04-15T03:02:38;14.25;;;9.27;;
77109;SDS011;66062;52.464;16.922;2023-04-15T03:05:04;14.50;;;9.50;;
77109;SDS011;66062;52.464;16.922;2023-04-15T03:07:31;19.35;;;10.25;;
77109;SDS011;66062;52.464;16.922;2023-04-15T03:09:56;14.88;;;10.75;;
77109;SDS011;66062;52.464;16.922;2023-04-15T03:12:22;15.18;;;10.10;;
77109;SDS011;66062;52.464;16.922;2023-04-15T03:14:50;15.07;;;8.45;;
77109;SDS011;66062;52.464;16.922;2023-04-15T03:17:16;15.38;;;10.82;;
77109;SDS011;66062;52.464;16.922;2023-04-15T03:19:42;16.27;;;11.30;;
77109;SDS011;66062;52.464;16.922;2023-04-15T03:22:08;15.68;;;11.52;;
77109;SDS011;66062;52.464;16.922;2023-04-15T03:24:33;17.63;;;9.55;;
77109;SDS011;66062;52.464;16.922;2023-04-15T03:27:01;17.35;;;11.38;;
77109;SDS011;66062;52.464;16.922;2023-04-15T03:29:27;20.05;;;11.32;;
77109;SDS011;66062;52.464;16.922;2023-04-15T03:31:52;15.68;;;11.52;;
77109;SDS011;66062;52.464;16.922;2023-04-15T03:34:18;17.17;;;12.32;;
77109;SDS011;66062;52.464;16.922;2023-04-15T03:36:43;18.50;;;12.38;;
77109;SDS011;66062;52.464;16.922;2023-04-15T03:39:09;18.95;;;13.63;;
77109;SDS011;66062;52.464;16.922;2023-04-15T03:41:35;18.52;;;11.95;;
77109;SDS011;66062;52.464;16.922;2023-04-15T03:44:00;18.48;;;12.65;;
77109;SDS011;66062;52.464;16.922;2023-04-15T03:46:26;19.77;;;14.30;;
77109;SDS011;66062;52.464;16.922;2023-04-15T03:48:51;18.38;;;13.88;;
77109;SDS011;66062;52.464;16.922;2023-04-15T03:51:17;21.23;;;13.48;;
77109;SDS011;66062;52.464;16.922;2023-04-15T03:53:42;20.95;;;14.98;;
77109;SDS011;66062;52.464;16.922;2023-04-15T03:56:08;21.00;;;13.85;;
77109;SDS011;66062;52.464;16.922;2023-04-15T03:58:33;24.25;;;14.77;;
77109;SDS011;66062;52.464;16.922;2023-04-15T04:00:59;22.65;;;14.75;;
77109;SDS011;66062;52.464;16.922;2023-04-15T04:03:24;21.58;;;15.70;;
77109;SDS011;66062;52.464;16.922;2023-04-15T04:05:50;26.33;;;17.92;;
77109;SDS011;66062;52.464;16.922;2023-04-15T04:08:16;22.50;;;15.18;;
77109;SDS011;66062;52.464;16.922;2023-04-15T04:10:43;28.70;;;16.50;;
77109;SDS011;66062;52.464;16.922;2023-04-15T04:13:08;22.17;;;15.70;;
77109;SDS011;66062;52.464;16.922;2023-04-15T04:15:34;23.55;;;15.65;;
77109;SDS011;66062;52.464;16.922;2023-04-15T04:18:00;22.48;;;15.38;;
77109;SDS011;66062;52.464;16.922;2023-04-15T04:20:25;24.10;;;15.60;;
77109;SDS011;66062;52.464;16.922;2023-04-15T04:22:51;25.65;;;16.92;;
77109;SDS011;66062;52.464;16.922;2023-04-15T04:25:16;22.80;;;16.48;;
77109;SDS011;66062;52.464;16.922;2023-04-15T04:27:42;23.67;;;16.45;;
77109;SDS011;66062;52.464;16.922;2023-04-15T04:30:08;25.90;;;17.38;;
77109;SDS011;66062;52.464;16.922;2023-04-15T04:32:33;21.67;;;15.20;;
77109;SDS011;66062;52.464;16.922;2023-04-15T04:34:59;26.13;;;17.80;;
77109;SDS011;66062;52.464;16.922;2023-04-15T04:37:24;26.88;;;16.65;;
77109;SDS011;66062;52.464;16.922;2023-04-15T04:39:50;25.13;;;16.90;;
77109;SDS011;66062;52.464;16.922;2023-04-15T04:42:16;26.65;;;16.20;;
77109;SDS011;66062;52.464;16.922;2023-04-15T04:44:41;24.50;;;17.58;;
77109;SDS011;66062;52.464;16.922;2023-04-15T04:47:07;24.20;;;16.90;;
77109;SDS011;66062;52.464;16.922;2023-04-15T04:49:32;23.10;;;15.55;;
77109;SDS011;66062;52.464;16.922;2023-04-15T04:51:58;27.77;;;17.50;;
77109;SDS011;66062;52.464;16.922;2023-04-15T04:54:26;22.63;;;16.33;;
77109;SDS011;66062;52.464;16.922;2023-04-15T04:56:53;25.10;;;16.42;;
77109;SDS011;66062;52.464;16.922;2023-04-15T04:59:18;23.90;;;16.52;;
77109;SDS011;66062;52.464;16.922;2023-04-15T05:02:10;24.58;;;14.85;;
77109;SDS011;66062;52.464;16.922;2023-04-15T05:04:35;26.85;;;16.85;;
77109;SDS011;66062;52.464;16.922;2023-04-15T05:07:01;27.33;;;19.10;;
77109;SDS011;66062;52.464;16.922;2023-04-15T05:09:26;26.13;;;17.10;;
77109;SDS011;66062;52.464;16.922;2023-04-15T05:11:52;24.20;;;17.88;;
77109;SDS011;66062;52.464;16.922;2023-04-15T05:14:18;28.73;;;18.70;;
77109;SDS011;66062;52.464;16.922;2023-04-15T05:16:43;25.77;;;16.92;;
77109;SDS011;66062;52.464;16.922;2023-04-15T05:19:09;25.55;;;17.70;;
77109;SDS011;66062;52.464;16.922;2023-04-15T05:21:34;27.52;;;18.33;;
77109;SDS011;66062;52.464;16.922;2023-04-15T05:24:00;27.92;;;18.85;;
77109;SDS011;66062;52.464;16.922;2023-04-15T05:26:25;29.08;;;18.02;;
77109;SDS011;66062;52.464;16.922;2023-04-15T05:28:51;27.55;;;18.77;;
77109;SDS011;66062;52.464;16.922;2023-04-15T05:31:17;28.70;;;18.23;;
77109;SDS011;66062;52.464;16.922;2023-04-15T05:33:42;27.60;;;18.27;;
77109;SDS011;66062;52.464;16.922;2023-04-15T05:36:08;27.90;;;18.27;;
77109;SDS011;66062;52.464;16.922;2023-04-15T05:38:33;26.35;;;18.38;;
77109;SDS011;66062;52.464;16.922;2023-04-15T05:40:59;26.52;;;17.35;;
77109;SDS011;66062;52.464;16.922;2023-04-15T05:43:24;24.60;;;16.33;;
77109;SDS011;66062;52.464;16.922;2023-04-15T05:45:51;24.98;;;16.40;;
77109;SDS011;66062;52.464;16.922;2023-04-15T05:48:17;25.60;;;17.98;;
77109;SDS011;66062;52.464;16.922;2023-04-15T05:50:42;31.73;;;19.52;;
77109;SDS011;66062;52.464;16.922;2023-04-15T05:53:08;29.73;;;18.20;;
77109;SDS011;66062;52.464;16.922;2023-04-15T05:55:34;28.48;;;16.55;;
77109;SDS011;66062;52.464;16.922;2023-04-15T05:58:00;25.63;;;16.83;;
77109;SDS011;66062;52.464;16.922;2023-04-15T06:00:25;25.88;;;18.85;;
77109;SDS011;66062;52.464;16.922;2023-04-15T06:02:51;26.88;;;16.55;;
77109;SDS011;66062;52.464;16.922;2023-04-15T06:05:17;28.73;;;18.35;;
77109;SDS011;66062;52.464;16.922;2023-04-15T06:07:43;24.48;;;17.40;;
77109;SDS011;66062;52.464;16.922;2023-04-15T06:10:08;27.13;;;18.08;;
77109;SDS011;66062;52.464;16.922;2023-04-15T06:12:34;27.98;;;18.60;;
77109;SDS011;66062;52.464;16.922;2023-04-15T06:15:01;29.67;;;18.73;;
77109;SDS011;66062;52.464;16.922;2023-04-15T06:17:26;24.92;;;17.60;;
77109;SDS011;66062;52.464;16.922;2023-04-15T06:19:52;26.30;;;18.88;;
77109;SDS011;66062;52.464;16.922;2023-04-15T06:22:23;25.55;;;17.80;;
77109;SDS011;66062;52.464;16.922;2023-04-15T06:24:49;26.60;;;19.08;;
77109;SDS011;66062;52.464;16.922;2023-04-15T06:27:15;27.85;;;17.83;;
77109;SDS011;66062;52.464;16.922;2023-04-15T06:29:41;29.15;;;19.33;;
77109;SDS011;66062;52.464;16.922;2023-04-15T06:32:07;28.30;;;19.10;;
77109;SDS011;66062;52.464;16.922;2023-04-15T06:34:32;26.98;;;17.40;;
77109;SDS011;66062;52.464;16.922;2023-04-15T06:36:57;30.58;;;19.08;;
77109;SDS011;66062;52.464;16.922;2023-04-15T06:39:23;24.48;;;17.92;;
77109;SDS011;66062;52.464;16.922;2023-04-15T06:41:48;27.80;;;19.75;;
77109;SDS011;66062;52.464;16.922;2023-04-15T06:44:14;30.00;;;19.38;;
77109;SDS011;66062;52.464;16.922;2023-04-15T06:46:40;30.88;;;19.67;;
77109;SDS011;66062;52.464;16.922;2023-04-15T06:49:06;27.42;;;18.38;;
77109;SDS011;66062;52.464;16.922;2023-04-15T06:51:33;27.17;;;17.83;;
77109;SDS011;66062;52.464;16.922;2023-04-15T06:54:00;31.13;;;20.02;;
77109;SDS011;66062;52.464;16.922;2023-04-15T06:56:26;28.75;;;19.52;;
77109;SDS011;66062;52.464;16.922;2023-04-15T06:58:52;27.83;;;18.75;;
77109;SDS011;66062;52.464;16.922;2023-04-15T07:01:17;26.27;;;17.60;;
77109;SDS011;66062;52.464;16.922;2023-04-15T07:03:43;24.15;;;17.88;;
77109;SDS011;66062;52.464;16.922;2023-04-15T07:06:09;26.65;;;17.35;;
77109;SDS011;66062;52.464;16.922;2023-04-15T07:08:34;24.80;;;17.50;;
77109;SDS011;66062;52.464;16.922;2023-04-15T07:11:00;30.23;;;19.55;;
77109;SDS011;66062;52.464;16.922;2023-04-15T07:13:26;28.98;;;19.73;;
77109;SDS011;66062;52.464;16.922;2023-04-15T07:15:51;23.85;;;16.48;;
77109;SDS011;66062;52.464;16.922;2023-04-15T07:18:17;24.38;;;17.92;;
77109;SDS011;66062;52.464;16.922;2023-04-15T07:20:45;23.35;;;17.23;;
77109;SDS011;66062;52.464;16.922;2023-04-15T07:23:11;24.38;;;16.65;;
77109;SDS011;66062;52.464;16.922;2023-04-15T07:25:36;25.20;;;16.90;;
77109;SDS011;66062;52.464;16.922;2023-04-15T07:28:02;24.25;;;16.88;;
77109;SDS011;66062;52.464;16.922;2023-04-15T07:30:27;24.45;;;17.65;;
77109;SDS011;66062;52.464;16.922;2023-04-15T07:32:53;24.73;;;17.15;;
77109;SDS011;66062;52.464;16.922;2023-04-15T07:35:19;29.55;;;18.92;;
77109;SDS011;66062;52.464;16.922;2023-04-15T07:37:45;24.55;;;16.95;;
77109;SDS011;66062;52.464;16.922;2023-04-15T07:40:11;26.17;;;16.92;;
77109;SDS011;66062;52.464;16.922;2023-04-15T07:42:41;23.25;;;15.98;;
77109;SDS011;66062;52.464;16.922;2023-04-15T07:45:10;27.17;;;18.17;;
77109;SDS011;66062;52.464;16.922;2023-04-15T07:47:38;25.88;;;17.38;;
77109;SDS011;66062;52.464;16.922;2023-04-15T07:50:06;25.90;;;17.33;;
77109;SDS011;66062;52.464;16.922;2023-04-15T07:52:33;24.58;;;16.70;;
77109;SDS011;66062;52.464;16.922;2023-04-15T07:55:03;21.90;;;16.05;;
77109;SDS011;66062;52.464;16.922;2023-04-15T07:57:31;27.00;;;16.65;;
77109;SDS011;66062;52.464;16.922;2023-04-15T07:59:56;24.42;;;15.68;;
77109;SDS011;66062;52.464;16.922;2023-04-15T08:02:21;31.25;;;17.25;;
77109;SDS011;66062;52.464;16.922;2023-04-15T08:04:47;24.67;;;15.90;;
77109;SDS011;66062;52.464;16.922;2023-04-15T08:07:12;26.65;;;16.73;;
77109;SDS011;66062;52.464;16.922;2023-04-15T08:09:38;21.15;;;15.52;;
77109;SDS011;66062;52.464;16.922;2023-04-15T08:12:03;21.70;;;14.52;;
77109;SDS011;66062;52.464;16.922;2023-04-15T08:14:29;18.35;;;13.25;;
77109;SDS011;66062;52.464;16.922;2023-04-15T08:16:55;19.75;;;13.25;;
77109;SDS011;66062;52.464;16.922;2023-04-15T08:19:20;22.15;;;14.73;;
77109;SDS011;66062;52.464;16.922;2023-04-15T08:21:45;21.23;;;13.80;;
77109;SDS011;66062;52.464;16.922;2023-04-15T08:24:11;21.40;;;15.02;;
77109;SDS011;66062;52.464;16.922;2023-04-15T08:26:37;21.00;;;14.60;;
77109;SDS011;66062;52.464;16.922;2023-04-15T08:29:09;21.45;;;15.50;;
77109;SDS011;66062;52.464;16.922;2023-04-15T08:31:35;20.63;;;13.43;;
77109;SDS011;66062;52.464;16.922;2023-04-15T08:34:01;20.17;;;14.35;;
77109;SDS011;66062;52.464;16.922;2023-04-15T08:36:26;21.17;;;14.00;;
77109;SDS011;66062;52.464;16.922;2023-04-15T08:38:52;20.75;;;14.80;;
77109;SDS011;66062;52.464;16.922;2023-04-15T08:41:22;23.33;;;14.23;;
77109;SDS011;66062;52.464;16.922;2023-04-15T08:43:56;18.60;;;13.73;;
77109;SDS011;66062;52.464;16.922;2023-04-15T08:46:25;17.45;;;13.27;;
77109;SDS011;66062;52.464;16.922;2023-04-15T08:48:50;16.70;;;12.63;;
77109;SDS011;66062;52.464;16.922;2023-04-15T08:51:17;21.02;;;14.13;;
77109;SDS011;66062;52.464;16.922;2023-04-15T08:53:44;17.20;;;12.15;;
77109;SDS011;66062;52.464;16.922;2023-04-15T08:56:11;16.80;;;12.32;;
77109;SDS011;66062;52.464;16.922;2023-04-15T08:58:38;18.20;;;12.95;;
77109;SDS011;66062;52.464;16.922;2023-04-15T09:01:04;16.15;;;12.00;;
77109;SDS011;66062;52.464;16.922;2023-04-15T09:03:29;17.67;;;11.88;;
77109;SDS011;66062;52.464;16.922;2023-04-15T09:05:56;18.30;;;12.18;;
77109;SDS011;66062;52.464;16.922;2023-04-15T09:08:22;18.02;;;12.32;;
77109;SDS011;66062;52.464;16.922;2023-04-15T09:10:48;18.30;;;11.88;;
77109;SDS011;66062;52.464;16.922;2023-04-15T09:13:14;15.52;;;12.32;;
77109;SDS011;66062;52.464;16.922;2023-04-15T09:15:39;16.10;;;11.27;;
77109;SDS011;66062;52.464;16.922;2023-04-15T09:18:05;15.50;;;12.30;;
77109;SDS011;66062;52.464;16.922;2023-04-15T09:20:38;14.88;;;11.00;;
77109;SDS011;66062;52.464;16.922;2023-04-15T09:23:12;14.82;;;11.55;;
77109;SDS011;66062;52.464;16.922;2023-04-15T09:25:40;14.40;;;10.27;;
77109;SDS011;66062;52.464;16.922;2023-04-15T09:28:09;17.20;;;11.27;;
77109;SDS011;66062;52.464;16.922;2023-04-15T09:30:35;16.35;;;12.18;;
77109;SDS011;66062;52.464;16.922;2023-04-15T09:33:02;16.00;;;11.63;;
77109;SDS011;66062;52.464;16.922;2023-04-15T09:35:32;16.23;;;12.68;;
77109;SDS011;66062;52.464;16.922;2023-04-15T09:38:07;13.38;;;11.75;;
77109;SDS011;66062;52.464;16.922;2023-04-15T09:43:00;13.63;;;11.40;;
77109;SDS011;66062;52.464;16.922;2023-04-15T09:45:27;15.50;;;11.25;;
77109;SDS011;66062;52.464;16.922;2023-04-15T09:47:53;14.93;;;11.20;;
77109;SDS011;66062;52.464;16.922;2023-04-15T09:50:19;15.60;;;11.18;;
77109;SDS011;66062;52.464;16.922;2023-04-15T09:52:45;14.73;;;11.32;;
77109;SDS011;66062;52.464;16.922;2023-04-15T09:55:11;16.40;;;12.73;;
77109;SDS011;66062;52.464;16.922;2023-04-15T09:57:38;17.65;;;11.75;;
77109;SDS011;66062;52.464;16.922;2023-04-15T10:00:08;14.18;;;11.68;;
77109;SDS011;66062;52.464;16.922;2023-04-15T10:02:35;14.95;;;12.15;;
77109;SDS011;66062;52.464;16.922;2023-04-15T10:05:02;18.83;;;13.95;;
77109;SDS011;66062;52.464;16.922;2023-04-15T10:07:28;14.35;;;11.32;;
77109;SDS011;66062;52.464;16.922;2023-04-15T10:09:54;14.10;;;10.85;;
77109;SDS011;66062;52.464;16.922;2023-04-15T10:12:20;13.73;;;10.45;;
77109;SDS011;66062;52.464;16.922;2023-04-15T10:14:47;15.00;;;10.75;;
77109;SDS011;66062;52.464;16.922;2023-04-15T10:17:17;13.70;;;11.20;;
77109;SDS011;66062;52.464;16.922;2023-04-15T10:19:47;13.02;;;10.18;;
77109;SDS011;66062;52.464;16.922;2023-04-15T10:22:13;11.55;;;9.25;;
77109;SDS011;66062;52.464;16.922;2023-04-15T10:24:39;11.70;;;9.18;;
77109;SDS011;66062;52.464;16.922;2023-04-15T10:27:05;12.32;;;8.80;;
77109;SDS011;66062;52.464;16.922;2023-04-15T10:29:32;11.02;;;8.43;;
77109;SDS011;66062;52.464;16.922;2023-04-15T10:31:58;10.23;;;8.75;;
77109;SDS011;66062;52.464;16.922;2023-04-15T10:34:25;16.77;;;11.85;;
77109;SDS011;66062;52.464;16.922;2023-04-15T10:36:55;12.90;;;10.25;;
77109;SDS011;66062;52.464;16.922;2023-04-15T10:42:07;18.25;;;12.90;;
77109;SDS011;66062;52.464;16.922;2023-04-15T10:44:41;23.58;;;13.15;;
77109;SDS011;66062;52.464;16.922;2023-04-15T10:47:12;16.45;;;12.15;;
77109;SDS011;66062;52.464;16.922;2023-04-15T10:49:44;10.15;;;7.28;;
77109;SDS011;66062;52.464;16.922;2023-04-15T10:52:12;8.07;;;5.68;;
77109;SDS011;66062;52.464;16.922;2023-04-15T10:54:39;7.53;;;5.40;;
77109;SDS011;66062;52.464;16.922;2023-04-15T10:59:34;8.00;;;5.55;;
77109;SDS011;66062;52.464;16.922;2023-04-15T11:02:04;8.23;;;5.68;;
77109;SDS011;66062;52.464;16.922;2023-04-15T11:08:04;9.30;;;6.20;;
77109;SDS011;66062;52.464;16.922;2023-04-15T11:12:42;9.60;;;5.88;;
77109;SDS011;66062;52.464;16.922;2023-04-15T11:15:29;8.82;;;5.28;;
77109;SDS011;66062;52.464;16.922;2023-04-15T11:17:58;6.78;;;4.95;;
77109;SDS011;66062;52.464;16.922;2023-04-15T11:20:33;6.00;;;4.28;;
77109;SDS011;66062;52.464;16.922;2023-04-15T11:23:05;6.57;;;5.13;;
77109;SDS011;66062;52.464;16.922;2023-04-15T11:25:32;8.70;;;4.97;;
77109;SDS011;66062;52.464;16.922;2023-04-15T11:27:59;6.22;;;4.93;;
77109;SDS011;66062;52.464;16.922;2023-04-15T11:30:26;6.25;;;5.20;;
77109;SDS011;66062;52.464;16.922;2023-04-15T11:35:19;9.10;;;5.57;;
77109;SDS011;66062;52.464;16.922;2023-04-15T11:37:46;7.95;;;5.80;;
77109;SDS011;66062;52.464;16.922;2023-04-15T11:40:13;9.15;;;5.40;;
77109;SDS011;66062;52.464;16.922;2023-04-15T11:42:41;8.00;;;5.63;;
77109;SDS011;66062;52.464;16.922;2023-04-15T11:45:08;8.65;;;5.30;;
77109;SDS011;66062;52.464;16.922;2023-04-15T11:47:35;9.32;;;6.40;;
77109;SDS011;66062;52.464;16.922;2023-04-15T11:50:17;8.18;;;5.80;;
77109;SDS011;66062;52.464;16.922;2023-04-15T11:52:56;9.82;;;7.05;;
77109;SDS011;66062;52.464;16.922;2023-04-15T11:55:23;8.80;;;5.75;;
77109;SDS011;66062;52.464;16.922;2023-04-15T11:58:12;10.40;;;6.45;;
77109;SDS011;66062;52.464;16.922;2023-04-15T12:00:37;7.78;;;5.03;;
77109;SDS011;66062;52.464;16.922;2023-04-15T12:08:51;6.38;;;4.63;;
77109;SDS011;66062;52.464;16.922;2023-04-15T12:11:20;7.53;;;4.43;;
77109;SDS011;66062;52.464;16.922;2023-04-15T12:13:55;9.10;;;5.53;;
77109;SDS011;66062;52.464;16.922;2023-04-15T12:16:22;8.85;;;6.18;;
77109;SDS011;66062;52.464;16.922;2023-04-15T12:18:52;8.13;;;6.57;;
77109;SDS011;66062;52.464;16.922;2023-04-15T12:21:21;10.60;;;7.45;;
77109;SDS011;66062;52.464;16.922;2023-04-15T12:23:48;11.90;;;8.00;;
77109;SDS011;66062;52.464;16.922;2023-04-15T12:26:14;9.93;;;6.95;;
77109;SDS011;66062;52.464;16.922;2023-04-15T12:28:41;9.13;;;6.90;;
77109;SDS011;66062;52.464;16.922;2023-04-15T12:31:07;7.70;;;5.22;;
77109;SDS011;66062;52.464;16.922;2023-04-15T12:33:34;9.45;;;6.40;;
77109;SDS011;66062;52.464;16.922;2023-04-15T12:36:00;9.43;;;6.70;;
77109;SDS011;66062;52.464;16.922;2023-04-15T12:38:25;8.73;;;6.85;;
77109;SDS011;66062;52.464;16.922;2023-04-15T12:40:51;10.77;;;6.47;;
77109;SDS011;66062;52.464;16.922;2023-04-15T12:43:16;9.52;;;6.30;;
77109;SDS011;66062;52.464;16.922;2023-04-15T12:45:42;8.52;;;6.28;;
77109;SDS011;66062;52.464;16.922;2023-04-15T12:48:07;10.32;;;6.43;;
77109;SDS011;66062;52.464;16.922;2023-04-15T12:50:33;9.80;;;6.93;;
77109;SDS011;66062;52.464;16.922;2023-04-15T12:52:59;11.55;;;7.53;;
77109;SDS011;66062;52.464;16.922;2023-04-15T12:55:25;10.85;;;6.85;;
77109;SDS011;66062;52.464;16.922;2023-04-15T12:57:50;9.93;;;6.68;;
77109;SDS011;66062;52.464;16.922;2023-04-15T13:00:17;9.70;;;6.38;;
77109;SDS011;66062;52.464;16.922;2023-04-15T13:02:43;7.60;;;5.57;;
77109;SDS011;66062;52.464;16.922;2023-04-15T13:05:09;9.20;;;5.93;;
77109;SDS011;66062;52.464;16.922;2023-04-15T13:07:35;7.07;;;5.75;;
77109;SDS011;66062;52.464;16.922;2023-04-15T13:10:01;6.72;;;5.20;;
77109;SDS011;66062;52.464;16.922;2023-04-15T13:12:28;8.55;;;5.68;;
77109;SDS011;66062;52.464;16.922;2023-04-15T13:14:55;9.95;;;6.80;;
77109;SDS011;66062;52.464;16.922;2023-04-15T13:17:20;12.18;;;6.30;;
77109;SDS011;66062;52.464;16.922;2023-04-15T13:19:46;17.58;;;9.90;;
77109;SDS011;66062;52.464;16.922;2023-04-15T13:22:11;34.90;;;16.40;;
77109;SDS011;66062;52.464;16.922;2023-04-15T13:24:39;19.08;;;10.95;;
77109;SDS011;66062;52.464;16.922;2023-04-15T13:27:05;9.60;;;5.95;;
77109;SDS011;66062;52.464;16.922;2023-04-15T13:29:32;8.80;;;7.32;;
77109;SDS011;66062;52.464;16.922;2023-04-15T13:31:57;9.07;;;7.32;;
77109;SDS011;66062;52.464;16.922;2023-04-15T13:34:24;10.30;;;7.28;;
77109;SDS011;66062;52.464;16.922;2023-04-15T13:36:49;12.80;;;8.07;;
77109;SDS011;66062;52.464;16.922;2023-04-15T13:39:15;10.63;;;7.13;;
77109;SDS011;66062;52.464;16.922;2023-04-15T13:41:41;9.55;;;7.63;;
77109;SDS011;66062;52.464;16.922;2023-04-15T13:44:07;14.40;;;9.85;;
77109;SDS011;66062;52.464;16.922;2023-04-15T13:46:33;13.98;;;9.65;;
77109;SDS011;66062;52.464;16.922;2023-04-15T13:48:59;16.40;;;9.95;;
77109;SDS011;66062;52.464;16.922;2023-04-15T13:51:26;14.95;;;9.63;;
77109;SDS011;66062;52.464;16.922;2023-04-15T13:53:53;13.77;;;10.18;;
77109;SDS011;66062;52.464;16.922;2023-04-15T13:56:41;21.77;;;14.25;;
77109;SDS011;66062;52.464;16.922;2023-04-15T13:59:11;14.27;;;10.10;;
77109;SDS011;66062;52.464;16.922;2023-04-15T14:01:44;13.43;;;9.50;;
77109;SDS011;66062;52.464;16.922;2023-04-15T14:04:19;15.82;;;9.30;;
77109;SDS011;66062;52.464;16.922;2023-04-15T14:06:53;12.32;;;9.00;;
77109;SDS011;66062;52.464;16.922;2023-04-15T14:09:35;13.35;;;8.65;;
77109;SDS011;66062;52.464;16.922;2023-04-15T14:12:06;11.57;;;8.27;;
77109;SDS011;66062;52.464;16.922;2023-04-15T14:14:36;14.55;;;9.85;;
77109;SDS011;66062;52.464;16.922;2023-04-15T14:17:02;12.95;;;8.80;;
77109;SDS011;66062;52.464;16.922;2023-04-15T14:19:29;12.93;;;9.90;;
77109;SDS011;66062;52.464;16.922;2023-04-15T14:21:58;13.77;;;10.15;;
77109;SDS011;66062;52.464;16.922;2023-04-15T14:24:30;16.23;;;11.02;;
77109;SDS011;66062;52.464;16.922;2023-04-15T14:26:55;14.73;;;11.48;;
77109;SDS011;66062;52.464;16.922;2023-04-15T14:29:21;34.92;;;22.02;;
77109;SDS011;66062;52.464;16.922;2023-04-15T14:31:47;19.90;;;13.63;;
77109;SDS011;66062;52.464;16.922;2023-04-15T14:34:14;16.38;;;11.18;;
77109;SDS011;66062;52.464;16.922;2023-04-15T14:36:40;16.02;;;11.73;;